ADDS METAR Data INFO
IDs: Format: Raw Decoded Include TAF

Data at: 2354 UTC 23 Feb 2018

KFST 232253Z AUTO 12009KT 10SM CLR 21/M01 A2994 RMK AO2 SLP113 T02111011
KFST 232153Z AUTO 10008KT 10SM CLR 21/00 A2995 RMK AO2 SLP116 T02060000
KFST 232053Z AUTO 04006KT 10SM CLR 20/01 A2997 RMK AO2 SLP125 T02000011 56041
KFST 231953Z AUTO VRB06KT 10SM CLR 19/02 A3001 RMK AO2 SLP138 T01890017
KFST 231853Z AUTO 00000KT 10SM CLR 16/03 A3006 RMK AO2 SLP159 T01560028
KFST 231753Z AUTO 28003KT 10SM CLR 12/03 A3010 RMK AO2 SLP177 T01220028 10128 20000 58007
KFST 231653Z AUTO 27004KT 10SM CLR 09/02 A3012 RMK AO2 SLP183 T00940022
KFST 231553Z AUTO 27006KT 10SM CLR 07/02 A3013 RMK AO2 SLP187 T00670017
KFST 231453Z AUTO 25006KT 10SM CLR 03/M01 A3013 RMK AO2 SLP190 T00331006 53008
KFST 231416Z AUTO 26006KT 10SM FEW004 02/M01 A3012 RMK AO2 T00171011
KFST 231353Z AUTO 27006KT 10SM CLR 01/M01 A3011 RMK AO2 SLP187 T00111011
KFST 231329Z AUTO 27008KT 10SM FEW005 01/M02 A3011 RMK AO2 T00061017
KFST 231253Z AUTO 26005KT 10SM BKN005 01/M02 A3010 RMK AO2 SLP181 T00061022
KFST 231251Z AUTO 26007KT 10SM BKN005 01/M02 A3010 RMK AO2
KFST 231225Z AUTO 26003KT 10SM FEW005 01/M02 A3009 RMK AO2 T00061017
KFST 231153Z AUTO 25009KT 10SM CLR 01/M02 A3008 RMK AO2 SLP173 T00111017 10033 20011 56006
KFST 231053Z AUTO 24007KT 10SM CLR 02/M01 A3009 RMK AO2 SLP175 T00171011
KFST 230953Z AUTO 24003KT 10SM CLR 02/M01 A3008 RMK AO2 SLP169 T00221011
KFST 230853Z AUTO 16004KT 10SM CLR 02/M01 A3010 RMK AO2 SLP180 T00221011 58009
KFST 230753Z AUTO 19003KT 10SM CLR 02/M01 A3012 RMK AO2 SLP189 T00221011
KFST 230653Z AUTO 26005KT 10SM CLR 03/M01 A3012 RMK AO2 SLP191 T00281006
KFST 230553Z AUTO 29003KT 10SM CLR 03/M01 A3013 RMK AO2 SLP194 T00331006 10089 20033 401001028 58002
KFST 230453Z AUTO 32003KT 10SM CLR 05/01 A3014 RMK AO2 SLP198 T00500006
KFST 230353Z AUTO 07004KT 10SM CLR 05/M01 A3013 RMK AO2 SLP197 T00501006
KFST 230253Z AUTO 07004KT 10SM CLR 06/00 A3013 RMK AO2 SLP198 T00560000 51008
KFST 230153Z AUTO 07005KT 10SM CLR 07/00 A3013 RMK AO2 SLP195 T00670000
KFST 230053Z AUTO 04005KT 10SM CLR 08/01 A3012 RMK AO2 SLP190 T00780006
KFST 222353Z AUTO 06007KT 10SM CLR 09/01 A3011 RMK AO2 SLP186 T00890006 10100 20033 55001
KFST 222253Z AUTO 07007KT 10SM CLR 09/01 A3011 RMK AO2 SLP184 T00940006
KFST 222153Z AUTO 03006KT 10SM CLR 09/01 A3010 RMK AO2 SLP184 T00940011
KFST 222053Z AUTO 04004KT 10SM CLR 07/01 A3011 RMK AO2 SLP190 T00720006 58030
KFST 221953Z AUTO VRB03KT 10SM CLR 06/00 A3014 RMK AO2 SLP200 T00560000
KFST 221853Z AUTO VRB04KT 10SM CLR 04/00 A3018 RMK AO2 SLP217 T00440000
KFST 221820Z AUTO 00000KT 10SM SCT014 05/00 A3020 RMK AO2 T00500000
KFST 221753Z AUTO 34004KT 10SM OVC013 03/M01 A3021 RMK AO2 SLP227 I6001 T00331006 10033 21017 50001
KFST 221711Z AUTO 00000KT 10SM OVC010 02/M01 A3022 RMK AO2 T00171011
KFST 221653Z AUTO 19003KT 10SM OVC009 01/00 A3022 RMK AO2 SLP233 T00060000
KFST 221637Z AUTO 00000KT 10SM OVC009 01/M01 A3022 RMK AO2 CIG 006V013 T00061006
KFST 221625Z AUTO 00000KT 10SM BKN006 OVC011 00/00 A3022 RMK AO2 CIG 005V010 T00000000
KFST 221610Z AUTO 02003KT 10SM OVC005 00/M01 A3022 RMK AO2 T00001011
KFST 221553Z AUTO 00000KT 10SM OVC004 M01/M01 A3022 RMK AO2 SLP233 T10061006
KFST 221540Z AUTO 01003KT 6SM BR OVC003 M01/M01 A3021 RMK AO2 T10061006
KFST 221521Z AUTO 00000KT 2 1/2SM BR OVC003 M01/M01 A3021 RMK AO2 T10111011
KFST 221509Z AUTO 07003KT 1 1/4SM BR OVC002 M01/M01 A3021 RMK AO2 T10111011
KFST 221453Z AUTO 07003KT 1SM BR OVC002 M01/M01 A3020 RMK AO2 SLP229 I1001 I3001 T10111011 53005
KFST 221411Z AUTO 08005KT 3/4SM BR OVC003 M02/M02 A3019 RMK AO2 I1000 T10171017
KFST 221353Z AUTO 08004KT 1 1/4SM BR OVC003 M02/M02 A3019 RMK AO2 SLP221 T10171017
KFST 221348Z AUTO 09004KT 1 1/2SM BR OVC003 M02/M02 A3019 RMK AO2
KFST 221337Z AUTO 08004KT 2SM BR OVC003 M02/M02 A3018 RMK AO2 T10171022
KFST 221330Z AUTO 06004KT 3SM BR OVC003 M02/M02 A3018 RMK AO2 T10171022
KFST 221253Z AUTO 08003KT 2 1/2SM BR OVC003 M02/M02 A3019 RMK AO2 SLP221 T10171022
KFST 221208Z AUTO 00000KT 2 1/2SM BR OVC003 M02/M02 A3019 RMK AO2 T10171022